Home   Weather   Italy   Sassari   Past weeks
Flag for Italy

Past Weather in Sassari, Italy — Yesterday and Last 2 Weeks

Currently: 86 °F. Passing clouds. (Weather station: Alghero Airport, Italy). See more current weather

Past Weather in Sassari — Graph

°F

Sassari Temperature Yesterday

Maximum temperature yesterday: 97 °F (at 12:20 pm)
Minimum temperature yesterday: 64 °F (at 4:20 am)
Average temperature yesterday: 81 °F

High & Low Weather Summary for the Past Weeks

 TemperatureHumidityPressure
High97 °F (Jul 19, 12:20 pm)100% (Jul 8, 5:20 am)30.07 "Hg (Jul 8, 5:20 am)
Low63 °F (Jul 6, 5:20 am)20% (Jul 19, 12:20 pm)29.74 "Hg (Jul 6, 6:20 pm)
Average79 °F67%29.94 "Hg
* Reported Jul 5 10:20 am — Jul 20 10:20 am, Sassari. Weather by CustomWeather, © 2024

Note: Actual official high and low records may vary slightly from our data, if they occured in-between our weather recording intervals... More about our weather records

Sassari Weather History for the Previous 24 Hours

Scroll right to see more
 ConditionsComfort  
Time TempWeatherWind HumidityBarometerVisibility
10:20 am
Sat, Jul 20
86 °FSunny.2 mph46%29.89 "Hg10 mi
9:20 am82 °FSunny.2 mph48%29.89 "Hg10 mi
8:50 am79 °FSunny.1 mph58%29.89 "Hg10 mi
8:20 am75 °FSunny.1 mph65%29.89 "Hg10 mi
7:50 am70 °FSunny.1 mph78%29.89 "Hg10 mi
7:20 am66 °FSunny.2 mph88%29.89 "Hg10 mi
6:50 am64 °FSunny.2 mph94%29.89 "Hg10 mi
6:20 am64 °FSunny.1 mph94%29.89 "Hg10 mi
5:50 am64 °FClear.5 mph94%29.89 "Hg10 mi
5:20 am64 °FClear.1 mph94%29.89 "Hg10 mi
4:50 am66 °FClear.2 mph94%29.89 "Hg10 mi
4:20 am66 °FClear.1 mph94%29.89 "Hg10 mi
3:50 am66 °FClear.1 mph94%29.92 "Hg10 mi
3:20 am68 °FClear.3 mph88%29.92 "Hg10 mi
2:50 am68 °FClear.2 mph88%29.92 "Hg10 mi
2:20 am68 °FClear.2 mph88%29.95 "Hg10 mi
1:50 am70 °FClear.3 mph88%29.95 "Hg10 mi
1:20 am70 °FClear.2 mph83%29.95 "Hg10 mi
12:50 am72 °FClear.1 mph83%29.95 "Hg10 mi
12:20 am72 °FClear.2 mph83%29.98 "Hg10 mi
11:20 pm
Fri, Jul 19
73 °FClear.2 mph78%29.98 "Hg10 mi
10:50 pm73 °FClear.1 mph78%29.98 "Hg10 mi
10:20 pm75 °FClear.1 mph74%29.98 "Hg10 mi
9:50 pm79 °FClear.2 mph65%29.98 "Hg10 mi
9:20 pm79 °FClear.3 mph70%29.98 "Hg10 mi
8:50 pm81 °FPassing clouds.5 mph66%29.98 "HgN/A
8:20 pm82 °FPassing clouds.3 mph62%29.98 "HgN/A
7:50 pm84 °FPassing clouds.6 mph55%29.98 "HgN/A
7:20 pm86 °FPassing clouds.7 mph49%29.98 "HgN/A
6:50 pm88 °FPassing clouds.7 mph43%29.98 "HgN/A
6:20 pm91 °FPassing clouds.7 mph30%29.95 "HgN/A
5:50 pm93 °FPassing clouds.7 mph30%29.98 "HgN/A
5:20 pm95 °FSunny.6 mph34%29.95 "Hg10 mi
4:50 pm95 °FPassing clouds.8 mph30%29.98 "HgN/A
4:20 pm93 °FPassing clouds.9 mph34%29.98 "HgN/A
3:20 pm95 °FPassing clouds.13 mph32%29.98 "HgN/A
2:20 pm95 °FPassing clouds.10 mph34%30.01 "HgN/A
1:50 pm95 °FSunny.13 mph30%30.01 "Hg10 mi
1:20 pm95 °FPassing clouds.9 mph26%30.01 "HgN/A
12:50 pm91 °FPassing clouds.9 mph38%30.01 "HgN/A
12:20 pm97 °FPassing clouds.8 mph20%30.01 "HgN/A
Weather by CustomWeather, © 2024

See weather overview